createdAt,value
2022-09-13T00:04:05.222Z,2.88
2022-09-13T00:09:37.865Z,3.05
2022-09-13T00:15:09.545Z,3.00
2022-09-13T00:20:40.583Z,2.83
2022-09-13T00:26:14.188Z,2.85
2022-09-13T00:31:45.182Z,3.10
2022-09-13T00:37:16.095Z,3.05
2022-09-13T00:42:47.270Z,3.03
2022-09-13T00:48:23.162Z,3.28
2022-09-13T00:53:55.518Z,2.90
2022-09-13T00:59:31.394Z,2.90
2022-09-13T01:05:02.744Z,3.03
2022-09-13T01:10:36.181Z,2.58
2022-09-13T01:16:07.432Z,2.60
2022-09-13T01:22:00.219Z,2.90
2022-09-13T01:27:51.195Z,2.92
2022-09-13T01:33:38.626Z,3.00
2022-09-13T01:39:23.802Z,3.70
2022-09-13T01:45:01.093Z,2.95
2022-09-13T01:50:42.422Z,2.83
2022-09-13T01:56:34.113Z,2.92
2022-09-13T02:02:28.446Z,3.25
2022-09-13T02:08:05.042Z,3.03
2022-09-13T02:13:39.959Z,3.20
2022-09-13T02:19:19.321Z,3.10
2022-09-13T02:24:56.057Z,3.20
2022-09-13T02:30:28.881Z,3.15
2022-09-13T02:36:13.651Z,2.97
2022-09-13T02:42:03.274Z,3.40
2022-09-13T02:47:59.367Z,3.40
2022-09-13T02:53:40.721Z,3.30
2022-09-13T02:59:20.618Z,3.50
2022-09-13T03:04:51.879Z,3.47
2022-09-13T03:10:23.388Z,3.47
2022-09-13T03:16:28.815Z,3.47
2022-09-13T03:22:07.334Z,3.53
2022-09-13T03:27:47.458Z,3.42
2022-09-13T03:33:25.338Z,3.63
2022-09-13T03:39:15.487Z,3.53
2022-09-13T03:44:48.033Z,3.38
2022-09-13T03:50:22.823Z,3.70
2022-09-13T03:55:54.902Z,3.55
2022-09-13T04:01:26.165Z,3.65
2022-09-13T04:06:57.264Z,3.63
2022-09-13T04:12:31.453Z,3.80
2022-09-13T04:18:02.494Z,3.55
2022-09-13T04:23:33.445Z,3.28
2022-09-13T04:29:04.256Z,3.78
2022-09-13T04:34:35.633Z,3.72
2022-09-13T04:40:08.400Z,3.55
2022-09-13T04:45:40.213Z,3.47
2022-09-13T04:51:11.263Z,3.50
2022-09-13T04:56:42.202Z,3.40
2022-09-13T05:02:13.260Z,3.63
2022-09-13T05:07:44.221Z,3.25
2022-09-13T05:13:15.423Z,3.47
2022-09-13T05:18:46.690Z,3.60
2022-09-13T05:24:18.116Z,3.17
2022-09-13T05:29:49.132Z,3.28
2022-09-13T05:35:20.360Z,3.25
2022-09-13T05:40:58.346Z,3.40
2022-09-13T05:46:29.494Z,3.10
2022-09-13T05:52:00.441Z,3.03
2022-09-13T05:57:31.248Z,3.20
2022-09-13T06:03:01.993Z,3.00
2022-09-13T06:08:34.651Z,3.25
2022-09-13T06:14:05.596Z,2.67
2022-09-13T06:19:36.544Z,3.10
2022-09-13T06:25:07.897Z,2.65
2022-09-13T06:30:38.707Z,2.85
2022-09-13T06:36:15.885Z,2.53
2022-09-13T06:41:46.915Z,2.63
2022-09-13T06:47:18.058Z,2.97
2022-09-13T06:52:49.252Z,2.60
2022-09-13T06:58:20.358Z,2.95
2022-09-13T07:03:54.521Z,2.85
2022-09-13T07:09:26.671Z,2.85
2022-09-13T07:14:57.728Z,2.60
2022-09-13T07:20:29.081Z,3.00
2022-09-13T07:26:05.731Z,2.92
2022-09-13T07:31:39.023Z,2.90
2022-09-13T07:37:10.216Z,3.30
2022-09-13T07:42:41.994Z,2.70
2022-09-13T07:48:13.314Z,2.80
2022-09-13T07:53:46.001Z,2.75
2022-09-13T07:59:18.060Z,2.53
2022-09-13T08:04:49.199Z,2.88
2022-09-13T08:10:20.354Z,2.90
2022-09-13T08:15:51.709Z,2.72
2022-09-13T08:21:25.415Z,2.92
2022-09-13T08:26:56.873Z,2.90
2022-09-13T08:32:28.059Z,2.47
2022-09-13T08:38:00.004Z,2.78
2022-09-13T08:43:41.995Z,2.75
2022-09-13T08:49:28.139Z,2.42
2022-09-13T08:55:03.142Z,3.03
2022-09-13T09:00:44.815Z,2.80
2022-09-13T09:06:17.288Z,2.83
2022-09-13T09:11:55.403Z,2.63
2022-09-13T09:17:50.155Z,2.55
2022-09-13T09:23:22.142Z,2.97
2022-09-13T09:28:58.596Z,2.70
2022-09-13T09:34:46.423Z,2.65
2022-09-13T09:40:18.355Z,2.70
2022-09-13T09:45:52.218Z,2.90
2022-09-13T09:51:26.076Z,2.78
2022-09-13T09:56:57.370Z,2.90
2022-09-13T10:02:28.493Z,2.60
2022-09-13T10:08:05.781Z,2.70
2022-09-13T10:13:38.466Z,2.83
2022-09-13T10:19:29.805Z,2.50
2022-09-13T10:25:22.427Z,2.35
2022-09-13T10:30:58.143Z,2.90
2022-09-13T10:36:51.504Z,3.05
2022-09-13T10:42:24.749Z,2.72
2022-09-13T10:48:19.252Z,2.80
2022-09-13T10:53:50.608Z,2.60
2022-09-13T10:59:26.213Z,2.45
2022-09-13T11:05:21.971Z,2.53
2022-09-13T11:11:05.533Z,2.60
2022-09-13T11:17:01.737Z,2.22
2022-09-13T11:23:00.695Z,2.78
2022-09-13T11:28:40.760Z,2.75
2022-09-13T11:34:37.674Z,2.53
2022-09-13T11:40:32.848Z,2.40
2022-09-13T11:46:41.726Z,2.67
2022-09-13T11:52:32.635Z,2.47
2022-09-13T11:58:06.769Z,2.20
2022-09-13T12:03:57.957Z,2.58
2022-09-13T12:09:33.641Z,2.38
2022-09-13T12:15:08.617Z,2.35
2022-09-13T12:20:48.858Z,2.08
2022-09-13T12:26:45.511Z,2.30
2022-09-13T12:32:18.468Z,2.60
2022-09-13T12:37:58.324Z,2.38
2022-09-13T12:43:44.547Z,2.47
2022-09-13T12:49:26.796Z,2.28
2022-09-13T12:55:46.968Z,2.25
2022-09-13T13:01:24.627Z,2.25
2022-09-13T13:07:02.652Z,2.38
2022-09-13T13:12:38.603Z,1.95
2022-09-13T13:18:22.802Z,1.67
2022-09-13T13:24:28.815Z,2.40
2022-09-13T13:30:36.861Z,2.20
2022-09-13T13:36:22.518Z,2.45
2022-09-13T13:41:57.467Z,2.33
2022-09-13T13:47:28.791Z,2.78
2022-09-13T13:53:18.609Z,2.30
2022-09-13T13:58:56.673Z,1.98
2022-09-13T14:04:42.928Z,1.98
2022-09-13T14:10:33.244Z,2.00
2022-09-13T14:16:44.656Z,1.73
2022-09-13T14:22:26.358Z,2.00
2022-09-13T14:27:59.467Z,1.90
2022-09-13T14:33:35.244Z,2.20
2022-09-13T14:39:09.249Z,1.90
2022-09-13T14:44:47.318Z,2.03
2022-09-13T14:50:21.587Z,1.90
2022-09-13T14:56:02.232Z,2.03
2022-09-13T15:01:35.157Z,1.80
2022-09-13T15:07:16.936Z,1.83
2022-09-13T15:13:05.980Z,2.05
2022-09-13T15:18:37.372Z,1.83
2022-09-13T15:24:32.749Z,2.13
2022-09-13T15:30:06.413Z,1.70
2022-09-13T15:35:43.015Z,1.77
2022-09-13T15:41:19.413Z,2.03
2022-09-13T15:46:55.991Z,1.70
2022-09-13T15:52:27.488Z,1.90
2022-09-13T15:57:58.563Z,1.80
2022-09-13T16:03:30.226Z,1.63
2022-09-13T16:09:01.725Z,2.00
2022-09-13T16:14:33.496Z,1.65
2022-09-13T16:20:08.262Z,1.90
2022-09-13T16:25:39.940Z,1.75
2022-09-13T16:31:11.013Z,1.63
2022-09-13T16:36:42.998Z,2.10
2022-09-13T16:42:15.742Z,1.63
2022-09-13T16:47:46.804Z,1.98
2022-09-13T16:53:18.078Z,2.00
2022-09-13T16:58:50.139Z,1.80
2022-09-13T17:04:21.120Z,2.13
2022-09-13T17:09:52.725Z,2.08
2022-09-13T17:15:23.730Z,1.80
2022-09-13T17:20:54.869Z,1.83
2022-09-13T17:26:26.384Z,1.77
2022-09-13T17:31:58.935Z,1.80
2022-09-13T17:37:30.528Z,1.70
2022-09-13T17:43:01.781Z,1.90
2022-09-13T17:48:33.295Z,1.70
2022-09-13T17:54:06.649Z,1.80
2022-09-13T17:59:38.385Z,1.85
2022-09-13T18:05:13.385Z,1.60
2022-09-13T18:11:10.154Z,2.10
2022-09-13T18:16:37.220Z,1.92
2022-09-13T18:22:09.732Z,2.10
2022-09-13T18:27:41.052Z,1.77
2022-09-13T18:33:13.469Z,1.73
2022-09-13T18:38:47.149Z,1.80
2022-09-13T18:44:18.879Z,1.80
2022-09-13T18:49:49.788Z,2.00
2022-09-13T18:55:20.671Z,1.90
2022-09-13T19:01:04.202Z,1.92
2022-09-13T19:06:38.460Z,1.75
2022-09-13T19:12:09.597Z,1.60
2022-09-13T19:17:41.066Z,1.90
2022-09-13T19:23:12.331Z,2.30
2022-09-13T19:29:08.523Z,2.25
2022-09-13T19:34:39.747Z,2.15
2022-09-13T19:40:11.447Z,2.03
2022-09-13T19:45:42.379Z,2.20
2022-09-13T19:51:17.998Z,2.15
2022-09-13T19:56:50.201Z,2.38
2022-09-13T20:02:20.992Z,2.15
2022-09-13T20:07:51.811Z,2.00
2022-09-13T20:13:24.277Z,2.45
2022-09-13T20:18:57.367Z,2.00
2022-09-13T20:24:28.440Z,2.10
2022-09-13T20:30:00.597Z,2.22
2022-09-13T20:35:32.975Z,2.47
2022-09-13T20:41:09.470Z,2.23
2022-09-13T20:46:40.673Z,2.40
2022-09-13T20:52:14.016Z,2.33
2022-09-13T20:57:48.366Z,2.47
2022-09-13T21:03:19.435Z,2.20
2022-09-13T21:08:51.200Z,2.08
2022-09-13T21:14:22.421Z,2.15
2022-09-13T21:19:53.377Z,2.05
2022-09-13T21:25:25.697Z,2.20
2022-09-13T21:30:58.694Z,2.20
2022-09-13T21:36:30.907Z,2.20
2022-09-13T21:42:03.141Z,2.40
2022-09-13T21:47:34.043Z,1.90
2022-09-13T21:53:04.962Z,1.92
2022-09-13T21:58:37.016Z,2.22
2022-09-13T22:04:16.683Z,2.17
2022-09-13T22:09:48.314Z,2.20
2022-09-13T22:15:19.239Z,2.08
2022-09-13T22:20:50.417Z,2.00
2022-09-13T22:26:24.467Z,1.98
2022-09-13T22:31:56.200Z,2.05
2022-09-13T22:37:27.419Z,2.05
2022-09-13T22:42:58.258Z,2.00
2022-09-13T22:48:29.785Z,2.10
2022-09-13T22:54:06.339Z,1.90
2022-09-13T22:59:38.431Z,2.03
2022-09-13T23:05:09.588Z,2.10
2022-09-13T23:10:40.641Z,2.03
2022-09-13T23:16:17.399Z,2.10
2022-09-13T23:21:49.057Z,2.13
2022-09-13T23:27:20.024Z,1.80
2022-09-13T23:32:51.451Z,1.75
2022-09-13T23:38:22.543Z,1.98
2022-09-13T23:43:54.480Z,2.05
2022-09-13T23:49:25.632Z,1.92
2022-09-13T23:54:57.270Z,2.00
